sensor_id;sensor_type;location;lat;lon;timestamp;P1;durP1;ratioP1;P2;durP2;ratioP2
57317;SDS011;43157;50.982;18.132;2023-01-16T10:28:01;20.00;;;7.70;;
57317;SDS011;43157;50.982;18.132;2023-01-16T10:30:54;15.80;;;7.00;;
57317;SDS011;43157;50.982;18.132;2023-01-16T10:36:05;16.40;;;5.20;;
57317;SDS011;43157;50.982;18.132;2023-01-16T10:44:32;18.90;;;9.60;;
57317;SDS011;43157;50.982;18.132;2023-01-16T10:47:19;17.20;;;7.20;;
57317;SDS011;43157;50.982;18.132;2023-01-16T10:50:06;30.20;;;12.20;;
57317;SDS011;43157;50.982;18.132;2023-01-16T10:52:33;45.80;;;21.10;;
57317;SDS011;43157;50.982;18.132;2023-01-16T10:54:59;20.70;;;7.90;;
57317;SDS011;43157;50.982;18.132;2023-01-16T10:57:26;13.80;;;4.50;;
57317;SDS011;43157;50.982;18.132;2023-01-16T11:02:53;17.40;;;6.10;;
57317;SDS011;43157;50.982;18.132;2023-01-16T11:07:52;16.40;;;5.60;;
57317;SDS011;43157;50.982;18.132;2023-01-16T11:10:19;14.30;;;5.00;;
57317;SDS011;43157;50.982;18.132;2023-01-16T11:12:45;14.50;;;6.10;;
57317;SDS011;43157;50.982;18.132;2023-01-16T11:15:30;12.70;;;4.90;;
57317;SDS011;43157;50.982;18.132;2023-01-16T11:18:21;15.90;;;6.50;;
57317;SDS011;43157;50.982;18.132;2023-01-16T11:20:54;13.80;;;5.20;;
57317;SDS011;43157;50.982;18.132;2023-01-16T11:23:24;12.80;;;3.90;;
57317;SDS011;43157;50.982;18.132;2023-01-16T11:25:52;14.30;;;5.30;;
57317;SDS011;43157;50.982;18.132;2023-01-16T11:28:28;14.10;;;6.30;;
57317;SDS011;43157;50.982;18.132;2023-01-16T11:30:57;19.20;;;7.50;;
57317;SDS011;43157;50.982;18.132;2023-01-16T11:33:33;51.30;;;29.00;;
57317;SDS011;43157;50.982;18.132;2023-01-16T11:36:00;19.80;;;11.00;;
57317;SDS011;43157;50.982;18.132;2023-01-16T11:38:29;15.80;;;5.60;;
57317;SDS011;43157;50.982;18.132;2023-01-16T11:40:59;11.60;;;3.50;;
57317;SDS011;43157;50.982;18.132;2023-01-16T11:43:26;12.30;;;4.70;;
57317;SDS011;43157;50.982;18.132;2023-01-16T11:48:53;14.10;;;5.00;;
57317;SDS011;43157;50.982;18.132;2023-01-16T11:51:20;18.90;;;5.80;;
57317;SDS011;43157;50.982;18.132;2023-01-16T11:53:49;11.40;;;3.30;;
57317;SDS011;43157;50.982;18.132;2023-01-16T12:07:40;13.40;;;4.10;;
57317;SDS011;43157;50.982;18.132;2023-01-16T12:10:31;13.10;;;4.00;;
57317;SDS011;43157;50.982;18.132;2023-01-16T12:13:04;14.80;;;4.60;;
57317;SDS011;43157;50.982;18.132;2023-01-16T12:16:34;13.90;;;4.00;;
57317;SDS011;43157;50.982;18.132;2023-01-16T12:21:58;12.00;;;4.40;;
57317;SDS011;43157;50.982;18.132;2023-01-16T12:30:00;10.70;;;3.60;;
57317;SDS011;43157;50.982;18.132;2023-01-16T12:41:19;11.40;;;3.10;;
57317;SDS011;43157;50.982;18.132;2023-01-16T12:55:16;25.50;;;7.50;;
57317;SDS011;43157;50.982;18.132;2023-01-16T12:58:23;13.30;;;4.00;;
57317;SDS011;43157;50.982;18.132;2023-01-16T13:01:06;12.00;;;3.20;;
57317;SDS011;43157;50.982;18.132;2023-01-16T13:06:23;14.40;;;4.40;;
57317;SDS011;43157;50.982;18.132;2023-01-16T13:08:55;10.90;;;3.10;;
57317;SDS011;43157;50.982;18.132;2023-01-16T13:11:32;13.90;;;4.50;;
57317;SDS011;43157;50.982;18.132;2023-01-16T13:14:21;13.50;;;5.10;;
57317;SDS011;43157;50.982;18.132;2023-01-16T13:19:39;14.40;;;4.80;;
57317;SDS011;43157;50.982;18.132;2023-01-16T13:24:50;24.30;;;8.90;;
57317;SDS011;43157;50.982;18.132;2023-01-16T13:27:21;14.40;;;3.00;;
57317;SDS011;43157;50.982;18.132;2023-01-16T13:30:03;11.10;;;3.60;;
57317;SDS011;43157;50.982;18.132;2023-01-16T13:32:38;18.20;;;6.10;;
57317;SDS011;43157;50.982;18.132;2023-01-16T13:35:16;18.40;;;5.70;;
57317;SDS011;43157;50.982;18.132;2023-01-16T13:42:57;13.10;;;3.80;;
57317;SDS011;43157;50.982;18.132;2023-01-16T13:45:48;17.60;;;6.00;;
57317;SDS011;43157;50.982;18.132;2023-01-16T13:48:22;18.20;;;6.70;;
57317;SDS011;43157;50.982;18.132;2023-01-16T13:51:00;14.90;;;4.40;;
57317;SDS011;43157;50.982;18.132;2023-01-16T13:53:30;17.70;;;6.60;;
57317;SDS011;43157;50.982;18.132;2023-01-16T13:56:07;13.10;;;4.40;;
57317;SDS011;43157;50.982;18.132;2023-01-16T13:58:37;14.60;;;5.50;;
57317;SDS011;43157;50.982;18.132;2023-01-16T14:01:05;20.10;;;7.60;;
57317;SDS011;43157;50.982;18.132;2023-01-16T14:03:33;22.40;;;8.90;;
57317;SDS011;43157;50.982;18.132;2023-01-16T14:06:16;26.50;;;11.50;;
57317;SDS011;43157;50.982;18.132;2023-01-16T14:08:46;29.10;;;12.30;;
57317;SDS011;43157;50.982;18.132;2023-01-16T14:17:11;16.40;;;5.70;;
57317;SDS011;43157;50.982;18.132;2023-01-16T14:19:38;21.60;;;7.60;;
57317;SDS011;43157;50.982;18.132;2023-01-16T14:22:20;36.70;;;13.90;;
57317;SDS011;43157;50.982;18.132;2023-01-16T14:24:50;25.90;;;10.40;;
57317;SDS011;43157;50.982;18.132;2023-01-16T14:27:24;26.30;;;9.50;;
57317;SDS011;43157;50.982;18.132;2023-01-16T14:30:01;16.90;;;6.20;;
57317;SDS011;43157;50.982;18.132;2023-01-16T14:32:29;20.60;;;8.30;;
57317;SDS011;43157;50.982;18.132;2023-01-16T14:34:57;17.20;;;6.90;;
57317;SDS011;43157;50.982;18.132;2023-01-16T14:37:25;31.20;;;13.80;;
57317;SDS011;43157;50.982;18.132;2023-01-16T14:39:55;23.60;;;10.10;;
57317;SDS011;43157;50.982;18.132;2023-01-16T14:42:27;22.50;;;9.90;;
57317;SDS011;43157;50.982;18.132;2023-01-16T14:45:17;18.40;;;6.20;;
57317;SDS011;43157;50.982;18.132;2023-01-16T14:50:54;15.70;;;6.60;;
57317;SDS011;43157;50.982;18.132;2023-01-16T14:57:03;18.10;;;7.50;;
57317;SDS011;43157;50.982;18.132;2023-01-16T14:59:34;25.10;;;10.20;;
57317;SDS011;43157;50.982;18.132;2023-01-16T15:02:08;20.60;;;8.60;;
57317;SDS011;43157;50.982;18.132;2023-01-16T15:04:45;21.70;;;6.60;;
57317;SDS011;43157;50.982;18.132;2023-01-16T15:07:47;24.30;;;8.50;;
57317;SDS011;43157;50.982;18.132;2023-01-16T15:10:30;23.40;;;10.20;;
57317;SDS011;43157;50.982;18.132;2023-01-16T15:16:22;33.40;;;14.80;;
57317;SDS011;43157;50.982;18.132;2023-01-16T15:19:18;30.50;;;10.50;;
57317;SDS011;43157;50.982;18.132;2023-01-16T15:22:04;31.40;;;11.40;;
57317;SDS011;43157;50.982;18.132;2023-01-16T15:24:40;25.90;;;9.30;;
57317;SDS011;43157;50.982;18.132;2023-01-16T15:27:11;40.40;;;19.70;;
57317;SDS011;43157;50.982;18.132;2023-01-16T15:29:47;45.90;;;16.60;;
57317;SDS011;43157;50.982;18.132;2023-01-16T15:32:20;56.00;;;21.10;;
57317;SDS011;43157;50.982;18.132;2023-01-16T15:34:47;42.30;;;15.20;;
57317;SDS011;43157;50.982;18.132;2023-01-16T15:37:29;67.30;;;22.60;;
57317;SDS011;43157;50.982;18.132;2023-01-16T15:39:57;79.80;;;26.60;;
57317;SDS011;43157;50.982;18.132;2023-01-16T15:42:24;99.30;;;30.50;;
57317;SDS011;43157;50.982;18.132;2023-01-16T15:45:22;108.30;;;29.90;;
57317;SDS011;43157;50.982;18.132;2023-01-16T15:51:07;49.40;;;13.80;;
57317;SDS011;43157;50.982;18.132;2023-01-16T15:53:36;53.30;;;19.70;;
57317;SDS011;43157;50.982;18.132;2023-01-16T15:56:07;36.80;;;14.50;;
57317;SDS011;43157;50.982;18.132;2023-01-16T15:58:53;32.40;;;13.40;;
57317;SDS011;43157;50.982;18.132;2023-01-16T16:01:26;38.50;;;15.20;;
57317;SDS011;43157;50.982;18.132;2023-01-16T16:03:53;34.80;;;11.80;;
57317;SDS011;43157;50.982;18.132;2023-01-16T16:06:19;42.00;;;15.80;;
57317;SDS011;43157;50.982;18.132;2023-01-16T16:08:49;30.70;;;10.30;;
57317;SDS011;43157;50.982;18.132;2023-01-16T16:14:02;31.50;;;11.40;;
57317;SDS011;43157;50.982;18.132;2023-01-16T16:17:02;30.20;;;11.70;;
57317;SDS011;43157;50.982;18.132;2023-01-16T16:19:48;46.40;;;15.80;;
57317;SDS011;43157;50.982;18.132;2023-01-16T16:22:16;30.50;;;12.00;;
57317;SDS011;43157;50.982;18.132;2023-01-16T16:25:07;33.80;;;14.00;;
57317;SDS011;43157;50.982;18.132;2023-01-16T16:27:42;32.20;;;12.20;;
57317;SDS011;43157;50.982;18.132;2023-01-16T16:30:21;30.00;;;12.00;;
57317;SDS011;43157;50.982;18.132;2023-01-16T16:32:49;20.40;;;8.20;;
57317;SDS011;43157;50.982;18.132;2023-01-16T16:35:25;27.30;;;9.90;;
57317;SDS011;43157;50.982;18.132;2023-01-16T16:38:01;34.20;;;12.10;;
57317;SDS011;43157;50.982;18.132;2023-01-16T16:40:27;24.30;;;9.80;;
57317;SDS011;43157;50.982;18.132;2023-01-16T16:42:57;25.60;;;11.80;;
57317;SDS011;43157;50.982;18.132;2023-01-16T16:45:28;26.80;;;11.90;;
57317;SDS011;43157;50.982;18.132;2023-01-16T16:51:08;23.80;;;9.80;;
57317;SDS011;43157;50.982;18.132;2023-01-16T16:53:37;26.60;;;11.40;;
57317;SDS011;43157;50.982;18.132;2023-01-16T16:56:09;29.60;;;12.80;;
57317;SDS011;43157;50.982;18.132;2023-01-16T16:58:43;27.80;;;13.90;;
57317;SDS011;43157;50.982;18.132;2023-01-16T17:01:11;28.50;;;11.20;;
57317;SDS011;43157;50.982;18.132;2023-01-16T17:03:41;32.50;;;10.80;;
57317;SDS011;43157;50.982;18.132;2023-01-16T17:06:10;29.70;;;11.20;;
57317;SDS011;43157;50.982;18.132;2023-01-16T17:08:40;24.80;;;10.00;;
57317;SDS011;43157;50.982;18.132;2023-01-16T17:11:08;24.40;;;9.00;;
57317;SDS011;43157;50.982;18.132;2023-01-16T17:13:35;20.00;;;7.10;;
57317;SDS011;43157;50.982;18.132;2023-01-16T17:16:01;31.10;;;12.60;;
57317;SDS011;43157;50.982;18.132;2023-01-16T17:18:27;31.60;;;13.30;;
57317;SDS011;43157;50.982;18.132;2023-01-16T17:20:53;38.00;;;17.40;;
57317;SDS011;43157;50.982;18.132;2023-01-16T17:23:22;28.40;;;12.90;;
57317;SDS011;43157;50.982;18.132;2023-01-16T17:25:48;30.20;;;12.20;;
57317;SDS011;43157;50.982;18.132;2023-01-16T17:28:14;25.00;;;11.10;;
57317;SDS011;43157;50.982;18.132;2023-01-16T17:30:40;26.80;;;10.40;;
57317;SDS011;43157;50.982;18.132;2023-01-16T17:33:09;29.70;;;11.80;;
57317;SDS011;43157;50.982;18.132;2023-01-16T17:35:37;24.50;;;9.30;;
57317;SDS011;43157;50.982;18.132;2023-01-16T17:38:11;34.10;;;15.70;;
57317;SDS011;43157;50.982;18.132;2023-01-16T17:40:41;23.40;;;11.80;;
57317;SDS011;43157;50.982;18.132;2023-01-16T17:43:14;33.90;;;15.40;;
57317;SDS011;43157;50.982;18.132;2023-01-16T17:46:02;30.10;;;13.40;;
57317;SDS011;43157;50.982;18.132;2023-01-16T17:48:34;27.60;;;11.70;;
57317;SDS011;43157;50.982;18.132;2023-01-16T17:51:00;30.90;;;13.90;;
57317;SDS011;43157;50.982;18.132;2023-01-16T17:53:27;60.60;;;34.90;;
57317;SDS011;43157;50.982;18.132;2023-01-16T17:55:55;31.50;;;15.10;;
57317;SDS011;43157;50.982;18.132;2023-01-16T18:00:55;30.10;;;15.20;;
57317;SDS011;43157;50.982;18.132;2023-01-16T18:03:26;29.20;;;12.80;;
57317;SDS011;43157;50.982;18.132;2023-01-16T18:05:58;31.70;;;13.60;;
57317;SDS011;43157;50.982;18.132;2023-01-16T18:08:27;30.90;;;13.70;;
57317;SDS011;43157;50.982;18.132;2023-01-16T18:10:53;38.90;;;19.30;;
57317;SDS011;43157;50.982;18.132;2023-01-16T18:13:19;34.10;;;16.10;;
57317;SDS011;43157;50.982;18.132;2023-01-16T18:16:04;29.10;;;13.60;;
57317;SDS011;43157;50.982;18.132;2023-01-16T18:18:48;29.90;;;15.70;;
57317;SDS011;43157;50.982;18.132;2023-01-16T18:21:15;25.80;;;12.70;;
57317;SDS011;43157;50.982;18.132;2023-01-16T18:23:59;27.70;;;12.90;;
57317;SDS011;43157;50.982;18.132;2023-01-16T18:26:25;29.10;;;14.10;;
57317;SDS011;43157;50.982;18.132;2023-01-16T18:28:51;29.10;;;12.00;;
57317;SDS011;43157;50.982;18.132;2023-01-16T18:31:18;28.40;;;13.30;;
57317;SDS011;43157;50.982;18.132;2023-01-16T18:33:44;32.80;;;15.00;;
57317;SDS011;43157;50.982;18.132;2023-01-16T18:36:12;34.70;;;17.30;;
57317;SDS011;43157;50.982;18.132;2023-01-16T18:38:39;33.10;;;13.90;;
57317;SDS011;43157;50.982;18.132;2023-01-16T18:41:24;36.90;;;18.00;;
57317;SDS011;43157;50.982;18.132;2023-01-16T18:44:09;26.80;;;13.30;;
57317;SDS011;43157;50.982;18.132;2023-01-16T18:47:12;31.50;;;14.00;;
57317;SDS011;43157;50.982;18.132;2023-01-16T18:49:58;33.30;;;14.80;;
57317;SDS011;43157;50.982;18.132;2023-01-16T18:52:42;32.10;;;14.60;;
57317;SDS011;43157;50.982;18.132;2023-01-16T18:55:27;26.30;;;11.90;;
57317;SDS011;43157;50.982;18.132;2023-01-16T18:58:13;25.80;;;11.50;;
57317;SDS011;43157;50.982;18.132;2023-01-16T19:00:57;30.60;;;15.40;;
57317;SDS011;43157;50.982;18.132;2023-01-16T19:03:52;30.20;;;12.90;;
57317;SDS011;43157;50.982;18.132;2023-01-16T19:06:18;32.10;;;15.00;;
57317;SDS011;43157;50.982;18.132;2023-01-16T19:08:43;69.60;;;25.90;;
57317;SDS011;43157;50.982;18.132;2023-01-16T19:11:15;32.50;;;14.40;;
57317;SDS011;43157;50.982;18.132;2023-01-16T19:13:43;30.10;;;12.50;;
57317;SDS011;43157;50.982;18.132;2023-01-16T19:16:12;28.70;;;13.80;;
57317;SDS011;43157;50.982;18.132;2023-01-16T19:18:56;32.80;;;12.70;;
57317;SDS011;43157;50.982;18.132;2023-01-16T19:21:23;28.90;;;12.50;;
57317;SDS011;43157;50.982;18.132;2023-01-16T19:23:49;30.00;;;14.00;;
57317;SDS011;43157;50.982;18.132;2023-01-16T19:26:15;28.00;;;12.20;;
57317;SDS011;43157;50.982;18.132;2023-01-16T19:28:41;27.90;;;13.70;;
57317;SDS011;43157;50.982;18.132;2023-01-16T19:31:07;28.70;;;13.50;;
57317;SDS011;43157;50.982;18.132;2023-01-16T19:33:34;29.60;;;13.80;;
57317;SDS011;43157;50.982;18.132;2023-01-16T19:35:59;31.60;;;15.10;;
57317;SDS011;43157;50.982;18.132;2023-01-16T19:38:25;28.80;;;13.30;;
57317;SDS011;43157;50.982;18.132;2023-01-16T19:40:51;30.70;;;14.20;;
57317;SDS011;43157;50.982;18.132;2023-01-16T19:43:16;21.40;;;8.70;;
57317;SDS011;43157;50.982;18.132;2023-01-16T19:46:01;32.00;;;14.40;;
57317;SDS011;43157;50.982;18.132;2023-01-16T19:48:45;28.10;;;11.10;;
57317;SDS011;43157;50.982;18.132;2023-01-16T19:51:11;31.40;;;13.90;;
57317;SDS011;43157;50.982;18.132;2023-01-16T19:53:36;30.30;;;12.30;;
57317;SDS011;43157;50.982;18.132;2023-01-16T19:56:02;31.10;;;14.20;;
57317;SDS011;43157;50.982;18.132;2023-01-16T19:58:28;28.90;;;10.90;;
57317;SDS011;43157;50.982;18.132;2023-01-16T20:00:53;31.20;;;12.50;;
57317;SDS011;43157;50.982;18.132;2023-01-16T20:03:19;28.80;;;12.90;;
57317;SDS011;43157;50.982;18.132;2023-01-16T20:05:45;29.30;;;12.50;;
57317;SDS011;43157;50.982;18.132;2023-01-16T20:08:11;26.20;;;11.10;;
57317;SDS011;43157;50.982;18.132;2023-01-16T20:10:36;29.70;;;13.70;;
57317;SDS011;43157;50.982;18.132;2023-01-16T20:13:02;35.60;;;16.50;;
57317;SDS011;43157;50.982;18.132;2023-01-16T20:15:28;32.40;;;13.60;;
57317;SDS011;43157;50.982;18.132;2023-01-16T20:17:55;34.70;;;15.10;;
57317;SDS011;43157;50.982;18.132;2023-01-16T20:20:21;36.60;;;15.60;;
57317;SDS011;43157;50.982;18.132;2023-01-16T20:22:47;27.60;;;12.30;;
57317;SDS011;43157;50.982;18.132;2023-01-16T20:25:13;48.40;;;21.10;;
57317;SDS011;43157;50.982;18.132;2023-01-16T20:27:40;31.50;;;13.20;;
57317;SDS011;43157;50.982;18.132;2023-01-16T20:30:07;27.30;;;10.40;;
57317;SDS011;43157;50.982;18.132;2023-01-16T20:32:34;27.00;;;11.60;;
57317;SDS011;43157;50.982;18.132;2023-01-16T20:35:00;29.00;;;13.50;;
57317;SDS011;43157;50.982;18.132;2023-01-16T20:37:25;34.80;;;16.80;;
57317;SDS011;43157;50.982;18.132;2023-01-16T20:39:51;34.80;;;17.00;;
57317;SDS011;43157;50.982;18.132;2023-01-16T20:42:18;38.60;;;18.00;;
57317;SDS011;43157;50.982;18.132;2023-01-16T20:45:03;101.20;;;48.70;;
57317;SDS011;43157;50.982;18.132;2023-01-16T20:47:48;81.60;;;31.60;;
57317;SDS011;43157;50.982;18.132;2023-01-16T20:50:14;59.30;;;28.70;;
57317;SDS011;43157;50.982;18.132;2023-01-16T20:52:40;39.00;;;19.00;;
57317;SDS011;43157;50.982;18.132;2023-01-16T20:55:06;52.80;;;21.40;;
57317;SDS011;43157;50.982;18.132;2023-01-16T20:57:32;53.60;;;19.20;;
57317;SDS011;43157;50.982;18.132;2023-01-16T20:59:58;51.30;;;18.70;;
57317;SDS011;43157;50.982;18.132;2023-01-16T21:02:24;43.70;;;15.20;;
57317;SDS011;43157;50.982;18.132;2023-01-16T21:04:50;45.40;;;16.90;;
57317;SDS011;43157;50.982;18.132;2023-01-16T21:07:18;47.50;;;16.90;;
57317;SDS011;43157;50.982;18.132;2023-01-16T21:09:44;54.70;;;17.80;;
57317;SDS011;43157;50.982;18.132;2023-01-16T21:12:10;58.80;;;18.70;;
57317;SDS011;43157;50.982;18.132;2023-01-16T21:14:54;62.80;;;20.70;;
57317;SDS011;43157;50.982;18.132;2023-01-16T21:17:20;55.60;;;17.10;;
57317;SDS011;43157;50.982;18.132;2023-01-16T21:20:05;66.60;;;23.70;;
57317;SDS011;43157;50.982;18.132;2023-01-16T21:22:50;62.90;;;22.50;;
57317;SDS011;43157;50.982;18.132;2023-01-16T21:25:17;52.20;;;18.60;;
57317;SDS011;43157;50.982;18.132;2023-01-16T21:27:47;58.10;;;26.00;;
57317;SDS011;43157;50.982;18.132;2023-01-16T21:30:16;38.10;;;15.80;;
57317;SDS011;43157;50.982;18.132;2023-01-16T21:32:42;50.80;;;20.50;;
57317;SDS011;43157;50.982;18.132;2023-01-16T21:35:08;42.50;;;17.30;;
57317;SDS011;43157;50.982;18.132;2023-01-16T21:37:35;37.90;;;17.00;;
57317;SDS011;43157;50.982;18.132;2023-01-16T21:40:02;37.60;;;16.70;;
57317;SDS011;43157;50.982;18.132;2023-01-16T21:42:29;50.40;;;25.00;;
57317;SDS011;43157;50.982;18.132;2023-01-16T21:45:14;48.50;;;21.90;;
57317;SDS011;43157;50.982;18.132;2023-01-16T21:48:03;69.00;;;34.70;;
57317;SDS011;43157;50.982;18.132;2023-01-16T21:50:31;39.70;;;19.40;;
57317;SDS011;43157;50.982;18.132;2023-01-16T21:52:56;55.90;;;22.70;;
57317;SDS011;43157;50.982;18.132;2023-01-16T21:55:22;55.90;;;22.70;;
57317;SDS011;43157;50.982;18.132;2023-01-16T21:57:49;68.40;;;31.70;;
57317;SDS011;43157;50.982;18.132;2023-01-16T22:00:15;49.70;;;20.80;;
57317;SDS011;43157;50.982;18.132;2023-01-16T22:02:41;41.70;;;18.00;;
57317;SDS011;43157;50.982;18.132;2023-01-16T22:05:10;44.90;;;17.50;;
57317;SDS011;43157;50.982;18.132;2023-01-16T22:07:39;48.80;;;20.80;;
57317;SDS011;43157;50.982;18.132;2023-01-16T22:10:08;52.70;;;24.30;;
57317;SDS011;43157;50.982;18.132;2023-01-16T22:12:38;54.80;;;22.60;;
57317;SDS011;43157;50.982;18.132;2023-01-16T22:15:22;59.80;;;26.40;;
57317;SDS011;43157;50.982;18.132;2023-01-16T22:18:07;45.80;;;18.30;;
57317;SDS011;43157;50.982;18.132;2023-01-16T22:20:42;43.20;;;18.50;;
57317;SDS011;43157;50.982;18.132;2023-01-16T22:23:15;39.00;;;16.60;;
57317;SDS011;43157;50.982;18.132;2023-01-16T22:25:46;45.30;;;17.30;;
57317;SDS011;43157;50.982;18.132;2023-01-16T22:28:16;44.00;;;17.70;;
57317;SDS011;43157;50.982;18.132;2023-01-16T22:30:44;43.30;;;19.90;;
57317;SDS011;43157;50.982;18.132;2023-01-16T22:33:11;41.40;;;18.90;;
57317;SDS011;43157;50.982;18.132;2023-01-16T22:35:37;48.70;;;21.40;;
57317;SDS011;43157;50.982;18.132;2023-01-16T22:38:03;39.90;;;17.70;;
57317;SDS011;43157;50.982;18.132;2023-01-16T22:40:28;39.20;;;18.50;;
57317;SDS011;43157;50.982;18.132;2023-01-16T22:42:54;43.00;;;19.30;;
57317;SDS011;43157;50.982;18.132;2023-01-16T22:45:39;41.30;;;19.50;;
57317;SDS011;43157;50.982;18.132;2023-01-16T22:48:24;33.10;;;15.50;;
57317;SDS011;43157;50.982;18.132;2023-01-16T22:50:49;34.90;;;16.90;;
57317;SDS011;43157;50.982;18.132;2023-01-16T22:53:15;32.00;;;15.20;;
57317;SDS011;43157;50.982;18.132;2023-01-16T22:55:40;31.50;;;14.10;;
57317;SDS011;43157;50.982;18.132;2023-01-16T22:58:08;30.40;;;14.30;;
57317;SDS011;43157;50.982;18.132;2023-01-16T23:00:33;34.10;;;15.10;;
57317;SDS011;43157;50.982;18.132;2023-01-16T23:03:00;42.30;;;16.00;;
57317;SDS011;43157;50.982;18.132;2023-01-16T23:05:25;46.20;;;17.90;;
57317;SDS011;43157;50.982;18.132;2023-01-16T23:07:51;31.90;;;14.80;;
57317;SDS011;43157;50.982;18.132;2023-01-16T23:10:19;25.50;;;11.50;;
57317;SDS011;43157;50.982;18.132;2023-01-16T23:12:47;39.10;;;16.00;;
57317;SDS011;43157;50.982;18.132;2023-01-16T23:15:14;34.90;;;15.10;;
57317;SDS011;43157;50.982;18.132;2023-01-16T23:17:40;37.40;;;16.10;;
57317;SDS011;43157;50.982;18.132;2023-01-16T23:20:05;32.00;;;16.00;;
57317;SDS011;43157;50.982;18.132;2023-01-16T23:22:31;37.20;;;17.70;;
57317;SDS011;43157;50.982;18.132;2023-01-16T23:24:57;34.70;;;16.50;;
57317;SDS011;43157;50.982;18.132;2023-01-16T23:27:23;38.00;;;17.70;;
57317;SDS011;43157;50.982;18.132;2023-01-16T23:29:49;41.70;;;18.90;;
57317;SDS011;43157;50.982;18.132;2023-01-16T23:32:14;38.60;;;18.30;;
57317;SDS011;43157;50.982;18.132;2023-01-16T23:34:40;34.80;;;16.40;;
57317;SDS011;43157;50.982;18.132;2023-01-16T23:37:06;36.30;;;15.90;;
57317;SDS011;43157;50.982;18.132;2023-01-16T23:39:31;36.40;;;14.40;;
57317;SDS011;43157;50.982;18.132;2023-01-16T23:41:58;39.10;;;16.90;;
57317;SDS011;43157;50.982;18.132;2023-01-16T23:44:42;36.40;;;17.00;;
57317;SDS011;43157;50.982;18.132;2023-01-16T23:47:12;38.20;;;17.90;;
57317;SDS011;43157;50.982;18.132;2023-01-16T23:49:40;38.00;;;17.80;;
57317;SDS011;43157;50.982;18.132;2023-01-16T23:52:08;32.30;;;13.30;;
57317;SDS011;43157;50.982;18.132;2023-01-16T23:54:38;35.90;;;15.50;;
57317;SDS011;43157;50.982;18.132;2023-01-16T23:57:05;37.10;;;15.20;;
57317;SDS011;43157;50.982;18.132;2023-01-16T23:59:34;35.90;;;14.90;;
